createdAt,value
2023-06-04T00:00:46.840Z,78.04
2023-06-04T00:01:46.868Z,77.00
2023-06-04T00:02:46.932Z,78.53
2023-06-04T00:03:47.082Z,77.35
2023-06-04T00:04:46.973Z,77.74
2023-06-04T00:05:46.955Z,77.40
2023-06-04T00:06:46.959Z,78.69
2023-06-04T00:07:46.976Z,80.35
2023-06-04T00:08:47.004Z,81.65
2023-06-04T00:09:47.030Z,84.81
2023-06-04T00:10:47.038Z,87.30
2023-06-04T00:11:47.119Z,90.49
2023-06-04T00:12:47.080Z,97.69
2023-06-04T00:13:47.089Z,101.41
2023-06-04T00:14:47.121Z,106.73
2023-06-04T00:15:47.159Z,112.25
2023-06-04T00:16:47.317Z,112.52
2023-06-04T00:17:47.240Z,113.96
2023-06-04T00:18:47.159Z,119.92
2023-06-04T00:19:47.164Z,117.26
2023-06-04T00:20:47.182Z,120.19
2023-06-04T00:21:47.186Z,120.56
2023-06-04T00:22:47.205Z,120.50
2023-06-04T00:23:47.276Z,121.81
2023-06-04T00:24:47.224Z,115.90
2023-06-04T00:25:47.233Z,111.95
2023-06-04T00:26:47.255Z,111.92
2023-06-04T00:27:47.264Z,111.34
2023-06-04T00:28:47.312Z,114.76
2023-06-04T00:29:47.312Z,115.67
2023-06-04T00:30:47.309Z,117.75
2023-06-04T00:31:47.379Z,121.40
2023-06-04T00:32:47.412Z,127.34
2023-06-04T00:33:47.338Z,129.10
2023-06-04T00:34:47.352Z,130.16
2023-06-04T00:35:47.373Z,131.87
2023-06-04T00:36:47.381Z,136.58
2023-06-04T00:37:47.410Z,133.12
2023-06-04T00:38:47.408Z,135.51
2023-06-04T00:39:47.420Z,138.27
2023-06-04T00:40:47.423Z,138.65
2023-06-04T00:41:47.447Z,139.39
2023-06-04T00:42:47.479Z,143.54
2023-06-04T00:43:47.485Z,142.83
2023-06-04T00:44:47.495Z,144.27
2023-06-04T00:45:47.557Z,148.19
2023-06-04T00:46:47.505Z,147.92
2023-06-04T00:47:47.587Z,148.92
2023-06-04T00:48:47.535Z,147.51
2023-06-04T00:49:47.531Z,148.46
2023-06-04T00:50:47.542Z,144.62
2023-06-04T00:51:47.543Z,143.39
2023-06-04T00:52:47.544Z,142.95
2023-06-04T00:53:47.587Z,142.13
2023-06-04T00:54:47.580Z,144.59
2023-06-04T00:55:47.620Z,148.05
2023-06-04T00:56:47.618Z,147.98
2023-06-04T00:57:47.629Z,145.12
2023-06-04T00:58:47.724Z,140.45
2023-06-04T00:59:47.647Z,129.76
2023-06-04T01:00:47.662Z,129.64
2023-06-04T01:01:47.703Z,121.31
2023-06-04T01:02:47.726Z,118.42
2023-06-04T01:03:47.745Z,120.31
2023-06-04T01:04:47.675Z,124.84
2023-06-04T01:05:47.673Z,134.44
2023-06-04T01:06:47.672Z,143.69
2023-06-04T01:07:47.699Z,150.10
2023-06-04T01:08:47.679Z,153.18
2023-06-04T01:09:47.695Z,156.20
2023-06-04T01:10:47.686Z,152.90
2023-06-04T01:11:47.678Z,154.44
2023-06-04T01:12:47.689Z,154.62
2023-06-04T01:13:48.481Z,152.57
2023-06-04T01:14:47.702Z,155.39
2023-06-04T01:15:47.702Z,155.68
2023-06-04T01:16:47.829Z,154.86
2023-06-04T01:17:47.725Z,153.94
2023-06-04T01:18:47.709Z,144.79
2023-06-04T01:19:47.707Z,132.50
2023-06-04T01:20:47.733Z,124.43
2023-06-04T01:21:47.715Z,121.88
2023-06-04T01:22:47.716Z,123.54
2023-06-04T01:23:47.823Z,125.83
2023-06-04T01:24:47.730Z,121.32
2023-06-04T01:25:47.737Z,121.26
2023-06-04T01:26:47.745Z,125.42
2023-06-04T01:27:47.760Z,126.73
2023-06-04T01:28:47.762Z,122.08
2023-06-04T01:29:47.768Z,116.19
2023-06-04T01:30:47.811Z,111.20
2023-06-04T01:31:47.896Z,109.07
2023-06-04T01:32:47.867Z,111.09
2023-06-04T01:33:47.800Z,106.50
2023-06-04T01:34:47.810Z,103.56
2023-06-04T01:35:47.815Z,101.68
2023-06-04T01:36:47.838Z,107.20
2023-06-04T01:37:47.828Z,116.03
2023-06-04T01:38:47.830Z,124.22
2023-06-04T01:39:47.831Z,128.18
2023-06-04T01:40:47.830Z,133.31
2023-06-04T01:41:47.835Z,134.10
2023-06-04T01:42:47.841Z,130.17
2023-06-04T01:43:47.859Z,131.41
2023-06-04T01:44:47.850Z,128.41
2023-06-04T01:45:47.860Z,123.92
2023-06-04T01:46:47.929Z,108.18
2023-06-04T01:47:47.924Z,102.56
2023-06-04T01:48:47.897Z,109.80
2023-06-04T01:49:47.922Z,119.83
2023-06-04T01:50:47.925Z,127.46
2023-06-04T01:51:47.995Z,128.88
2023-06-04T01:52:47.939Z,130.86
2023-06-04T01:53:47.974Z,133.50
2023-06-04T01:54:47.970Z,133.49
2023-06-04T01:55:47.990Z,129.41
2023-06-04T01:56:48.021Z,128.19
2023-06-04T01:57:48.031Z,126.89
2023-06-04T01:58:48.029Z,124.05
2023-06-04T01:59:48.069Z,128.29
2023-06-04T02:00:48.067Z,126.24
2023-06-04T02:01:48.118Z,126.53
2023-06-04T02:02:48.141Z,125.36
2023-06-04T02:03:48.150Z,123.88
2023-06-04T02:04:48.106Z,122.35
2023-06-04T02:05:48.122Z,122.43
2023-06-04T02:06:48.151Z,120.94
2023-06-04T02:07:48.145Z,117.84
2023-06-04T02:08:48.168Z,120.72
2023-06-04T02:09:48.169Z,117.10
2023-06-04T02:10:48.234Z,117.52
2023-06-04T02:11:48.204Z,118.14
2023-06-04T02:12:48.241Z,116.24
2023-06-04T02:13:48.239Z,112.84
2023-06-04T02:14:48.256Z,113.33
2023-06-04T02:15:48.264Z,106.56
2023-06-04T02:16:48.327Z,95.75
2023-06-04T02:17:48.371Z,88.10
2023-06-04T02:18:48.317Z,86.60
2023-06-04T02:19:48.350Z,82.41
2023-06-04T02:20:48.341Z,78.49
2023-06-04T02:21:48.358Z,73.14
2023-06-04T02:22:48.371Z,79.30
2023-06-04T02:23:48.522Z,82.77
2023-06-04T02:24:48.400Z,83.62
2023-06-04T02:25:48.423Z,80.40
2023-06-04T02:26:48.434Z,73.40
2023-06-04T02:27:48.468Z,67.18
2023-06-04T02:28:48.517Z,65.59
2023-06-04T02:29:48.513Z,61.04
2023-06-04T02:30:48.566Z,58.07
2023-06-04T02:31:48.559Z,57.47
2023-06-04T02:32:51.942Z,57.63
2023-06-04T02:33:48.545Z,57.81
2023-06-04T02:34:48.569Z,58.97
2023-06-04T02:35:48.544Z,59.02
2023-06-04T02:36:48.527Z,58.34
2023-06-04T02:37:48.537Z,53.04
2023-06-04T02:38:48.544Z,51.04
2023-06-04T02:39:48.535Z,50.08
2023-06-04T02:40:48.532Z,49.28
2023-06-04T02:41:48.479Z,47.24
2023-06-04T02:42:48.476Z,47.68
2023-06-04T02:43:48.468Z,43.97
2023-06-04T02:44:48.477Z,41.85
2023-06-04T02:45:48.518Z,39.87
2023-06-04T02:46:48.461Z,37.87
2023-06-04T02:47:48.486Z,38.78
2023-06-04T02:48:48.433Z,42.52
2023-06-04T02:49:48.441Z,45.42
2023-06-04T02:50:48.420Z,48.40
2023-06-04T02:51:48.416Z,49.84
2023-06-04T02:52:48.421Z,52.26
2023-06-04T02:53:48.403Z,53.49
2023-06-04T02:54:48.396Z,54.08
2023-06-04T02:55:48.397Z,55.69
2023-06-04T02:56:48.389Z,53.83
2023-06-04T02:57:48.398Z,54.84
2023-06-04T02:58:48.380Z,56.38
2023-06-04T02:59:48.376Z,55.63
2023-06-04T03:00:48.357Z,54.94
2023-06-04T03:01:48.404Z,54.83
2023-06-04T03:02:48.441Z,55.73
2023-06-04T03:03:48.378Z,54.48
2023-06-04T03:04:48.338Z,54.51
2023-06-04T03:05:48.331Z,50.82
2023-06-04T03:06:48.326Z,48.35
2023-06-04T03:07:48.493Z,44.11
2023-06-04T03:08:48.366Z,43.09
2023-06-04T03:09:48.320Z,42.87
2023-06-04T03:10:48.299Z,42.34
2023-06-04T03:11:48.301Z,45.22
2023-06-04T03:12:48.283Z,51.93
2023-06-04T03:13:48.274Z,56.03
2023-06-04T03:14:48.272Z,58.67
2023-06-04T03:15:48.277Z,59.37
2023-06-04T03:16:48.257Z,60.63
2023-06-04T03:17:48.273Z,61.14
2023-06-04T03:18:48.251Z,60.21
2023-06-04T03:19:48.251Z,60.67
2023-06-04T03:20:48.261Z,60.87
2023-06-04T03:21:48.222Z,60.88
2023-06-04T03:22:48.222Z,58.99
2023-06-04T03:23:48.224Z,59.73
2023-06-04T03:24:48.213Z,58.58
2023-06-04T03:25:48.199Z,57.58
2023-06-04T03:26:48.198Z,58.51
2023-06-04T03:27:48.188Z,58.77
2023-06-04T03:28:48.198Z,58.56
2023-06-04T03:29:48.201Z,59.60
2023-06-04T03:30:48.196Z,58.40
2023-06-04T03:31:48.258Z,59.27
2023-06-04T03:32:48.218Z,59.13
2023-06-04T03:33:48.158Z,57.13
2023-06-04T03:34:48.169Z,57.65
2023-06-04T03:35:48.142Z,56.99
2023-06-04T03:36:48.142Z,56.49
2023-06-04T03:37:48.147Z,55.78
2023-06-04T03:38:48.165Z,55.84
2023-06-04T03:39:48.182Z,54.44
2023-06-04T03:40:48.180Z,54.53
2023-06-04T03:41:48.189Z,53.69
2023-06-04T03:42:48.211Z,51.91
2023-06-04T03:43:48.221Z,52.03
2023-06-04T03:44:48.230Z,51.15
2023-06-04T03:45:48.250Z,50.21
2023-06-04T03:46:48.294Z,50.09
2023-06-04T03:47:48.331Z,49.25
2023-06-04T03:48:48.293Z,49.40
2023-06-04T03:49:48.329Z,49.88
2023-06-04T03:50:48.326Z,48.46
2023-06-04T03:51:48.331Z,47.51
2023-06-04T03:52:48.347Z,47.87
2023-06-04T03:53:48.365Z,47.06
2023-06-04T03:54:48.377Z,46.42
2023-06-04T03:55:48.393Z,47.74
2023-06-04T03:56:48.403Z,45.59
2023-06-04T03:57:48.407Z,45.63
2023-06-04T03:58:48.433Z,46.15
2023-06-04T03:59:48.455Z,45.35
2023-06-04T04:00:48.465Z,44.49
2023-06-04T04:01:48.496Z,45.10
2023-06-04T04:02:48.540Z,44.50
2023-06-04T04:03:48.641Z,43.04
2023-06-04T04:04:48.530Z,43.67
2023-06-04T04:05:48.537Z,42.76
2023-06-04T04:06:48.559Z,42.79
2023-06-04T04:07:48.577Z,42.18
2023-06-04T04:08:48.592Z,42.22
2023-06-04T04:09:48.608Z,41.55
2023-06-04T04:10:48.616Z,41.42
2023-06-04T04:11:48.634Z,40.96
2023-06-04T04:12:48.705Z,38.59
2023-06-04T04:13:48.732Z,39.70
2023-06-04T04:14:48.697Z,39.29
2023-06-04T04:15:48.733Z,38.90
2023-06-04T04:16:48.851Z,38.32
2023-06-04T04:17:48.746Z,38.60
2023-06-04T04:18:48.733Z,37.94
2023-06-04T04:19:48.758Z,38.83
2023-06-04T04:20:48.768Z,38.06
2023-06-04T04:21:48.787Z,38.30
2023-06-04T04:22:51.351Z,37.16
2023-06-04T04:23:48.798Z,37.31
2023-06-04T04:24:48.790Z,37.91
2023-06-04T04:25:48.847Z,38.13
2023-06-04T04:26:48.783Z,38.58
2023-06-04T04:27:48.801Z,38.07
2023-06-04T04:28:48.766Z,37.27
2023-06-04T04:29:48.760Z,37.23
2023-06-04T04:30:48.777Z,37.16
2023-06-04T04:31:48.740Z,37.31
2023-06-04T04:32:48.788Z,36.57
2023-06-04T04:33:48.737Z,37.19
2023-06-04T04:34:48.734Z,36.66
2023-06-04T04:35:48.706Z,35.57
2023-06-04T04:36:48.728Z,35.88
2023-06-04T04:37:48.726Z,35.68
2023-06-04T04:38:48.733Z,34.92
2023-06-04T04:39:48.728Z,35.25
2023-06-04T04:40:48.685Z,35.12
2023-06-04T04:41:48.677Z,34.31
2023-06-04T04:42:48.668Z,34.69
2023-06-04T04:43:48.656Z,34.28
2023-06-04T04:44:48.656Z,33.66
2023-06-04T04:45:48.658Z,33.89
2023-06-04T04:46:48.692Z,33.85
2023-06-04T04:47:48.669Z,33.51
2023-06-04T04:48:48.629Z,34.33
2023-06-04T04:49:50.579Z,33.08
2023-06-04T04:50:48.622Z,33.15
2023-06-04T04:51:48.607Z,33.24
2023-06-04T04:52:48.624Z,33.67
2023-06-04T04:53:48.636Z,33.83
2023-06-04T04:54:48.679Z,34.71
2023-06-04T04:55:48.684Z,34.59
2023-06-04T04:56:51.540Z,33.84
2023-06-04T04:57:49.689Z,33.89
2023-06-04T04:58:48.693Z,34.07
2023-06-04T04:59:48.681Z,34.12
2023-06-04T05:00:48.685Z,34.45
2023-06-04T05:01:48.734Z,34.42
2023-06-04T05:02:48.678Z,34.27
2023-06-04T05:03:48.702Z,34.88
2023-06-04T05:04:48.641Z,33.96
2023-06-04T05:05:48.628Z,33.29
2023-06-04T05:06:48.627Z,32.98
2023-06-04T05:07:48.625Z,33.09
2023-06-04T05:08:48.613Z,33.01
2023-06-04T05:09:48.595Z,32.06
2023-06-04T05:10:48.589Z,32.21
2023-06-04T05:11:48.580Z,30.87
2023-06-04T05:12:48.588Z,31.86
2023-06-04T05:13:48.567Z,30.81
2023-06-04T05:14:48.576Z,30.84
2023-06-04T05:15:48.564Z,31.24
2023-06-04T05:16:48.611Z,30.17
2023-06-04T05:17:48.565Z,29.75
2023-06-04T05:18:48.561Z,28.68
2023-06-04T05:19:48.540Z,29.32
2023-06-04T05:20:48.546Z,29.42
2023-06-04T05:21:48.576Z,28.75
2023-06-04T05:22:48.579Z,29.33
2023-06-04T05:23:48.682Z,29.85
2023-06-04T05:24:48.618Z,29.26
2023-06-04T05:25:48.645Z,29.25
2023-06-04T05:26:48.680Z,29.02
2023-06-04T05:27:48.697Z,28.86
2023-06-04T05:28:48.700Z,28.21
2023-06-04T05:29:48.738Z,28.09
2023-06-04T05:30:48.738Z,27.74
2023-06-04T05:31:48.809Z,27.61
2023-06-04T05:32:48.863Z,27.47
2023-06-04T05:33:48.793Z,26.96
2023-06-04T05:34:48.971Z,27.34
2023-06-04T05:35:48.865Z,26.90
2023-06-04T05:36:48.828Z,25.98
2023-06-04T05:37:48.854Z,25.65
2023-06-04T05:38:48.863Z,25.34
2023-06-04T05:39:48.884Z,25.08
2023-06-04T05:40:48.948Z,24.89
2023-06-04T05:41:48.911Z,25.23
2023-06-04T05:42:48.927Z,25.11
2023-06-04T05:43:48.956Z,24.78
2023-06-04T05:44:48.983Z,25.06
2023-06-04T05:45:49.010Z,25.20
2023-06-04T05:46:48.995Z,25.26
2023-06-04T05:47:49.066Z,25.47
2023-06-04T05:48:49.034Z,25.03
2023-06-04T05:49:49.042Z,25.76
2023-06-04T05:50:49.083Z,25.19
2023-06-04T05:51:49.060Z,25.73
2023-06-04T05:52:49.065Z,25.22
2023-06-04T05:53:49.109Z,25.33
2023-06-04T05:54:49.099Z,25.00
2023-06-04T05:55:49.117Z,25.14
2023-06-04T05:56:49.122Z,25.79
2023-06-04T05:57:49.138Z,25.28
2023-06-04T05:58:49.157Z,24.99
2023-06-04T05:59:49.180Z,25.12
2023-06-04T06:00:49.211Z,25.31
2023-06-04T06:01:49.214Z,26.00
2023-06-04T06:02:49.242Z,25.47
2023-06-04T06:03:49.286Z,25.65
2023-06-04T06:04:49.271Z,26.21
2023-06-04T06:05:49.272Z,25.95
2023-06-04T06:06:49.292Z,25.76
2023-06-04T06:07:49.381Z,26.09
2023-06-04T06:08:49.315Z,26.51
2023-06-04T06:09:49.351Z,26.69
2023-06-04T06:10:49.381Z,26.23
2023-06-04T06:11:49.381Z,26.65
2023-06-04T06:12:49.378Z,26.34
2023-06-04T06:13:49.405Z,26.17
2023-06-04T06:14:49.418Z,26.25
2023-06-04T06:15:49.623Z,26.31
2023-06-04T06:16:49.436Z,26.39
2023-06-04T06:17:49.506Z,26.40
2023-06-04T06:18:49.462Z,25.97
2023-06-04T06:19:49.481Z,26.25
2023-06-04T06:20:49.491Z,25.71
2023-06-04T06:21:49.498Z,25.39
2023-06-04T06:22:49.528Z,25.27
2023-06-04T06:23:49.609Z,25.72
2023-06-04T06:24:49.578Z,26.59
2023-06-04T06:25:49.569Z,27.28
2023-06-04T06:26:49.574Z,26.75
2023-06-04T06:27:49.596Z,26.37
2023-06-04T06:28:49.611Z,26.47
2023-06-04T06:29:49.624Z,26.06
2023-06-04T06:30:49.691Z,26.90
2023-06-04T06:31:49.769Z,26.92
2023-06-04T06:32:49.727Z,26.88
2023-06-04T06:33:49.684Z,26.29
2023-06-04T06:34:49.727Z,26.69
2023-06-04T06:35:49.723Z,25.94
2023-06-04T06:36:49.740Z,26.21
2023-06-04T06:37:49.773Z,26.85
2023-06-04T06:38:49.780Z,26.72
2023-06-04T06:39:49.798Z,26.34
2023-06-04T06:40:49.804Z,25.55
2023-06-04T06:41:49.807Z,25.35
2023-06-04T06:42:49.820Z,24.77
2023-06-04T06:43:49.854Z,24.64
2023-06-04T06:44:49.854Z,23.99
2023-06-04T06:45:49.866Z,24.77
2023-06-04T06:46:49.969Z,25.45
2023-06-04T06:47:50.108Z,25.29
2023-06-04T06:48:49.910Z,25.32
2023-06-04T06:49:49.927Z,26.24
2023-06-04T06:50:49.946Z,25.73
2023-06-04T06:51:49.962Z,25.87
2023-06-04T06:52:49.994Z,25.98
2023-06-04T06:53:50.006Z,25.63
2023-06-04T06:54:50.021Z,25.56
2023-06-04T06:55:50.033Z,25.96
2023-06-04T06:56:50.051Z,25.34
2023-06-04T06:57:50.049Z,23.96
2023-06-04T06:58:50.067Z,24.19
2023-06-04T06:59:50.104Z,25.56
2023-06-04T07:00:50.130Z,26.49
2023-06-04T07:01:50.136Z,26.05
2023-06-04T07:02:50.183Z,26.60
2023-06-04T07:03:50.129Z,27.57
2023-06-04T07:04:50.147Z,27.68
2023-06-04T07:05:50.145Z,27.11
2023-06-04T07:06:50.166Z,26.42
2023-06-04T07:07:50.168Z,26.33
2023-06-04T07:08:50.177Z,26.50
2023-06-04T07:09:50.197Z,26.04
2023-06-04T07:10:50.221Z,26.43
2023-06-04T07:11:50.221Z,26.85
2023-06-04T07:12:50.233Z,27.44
2023-06-04T07:13:50.239Z,27.12
2023-06-04T07:14:50.285Z,27.26
2023-06-04T07:15:50.270Z,27.59
2023-06-04T07:16:50.341Z,28.09
2023-06-04T07:17:50.343Z,27.32
2023-06-04T07:18:50.323Z,26.72
2023-06-04T07:19:50.348Z,26.62
2023-06-04T07:20:50.354Z,25.40
2023-06-04T07:21:50.373Z,23.88
2023-06-04T07:22:50.395Z,22.44
2023-06-04T07:23:50.454Z,21.43
2023-06-04T07:24:50.416Z,20.77
2023-06-04T07:25:50.437Z,21.37
2023-06-04T07:26:50.454Z,23.67
2023-06-04T07:27:50.445Z,24.91
2023-06-04T07:28:50.460Z,25.96
2023-06-04T07:29:50.528Z,26.45
2023-06-04T07:30:50.493Z,27.89
2023-06-04T07:31:50.560Z,27.19
2023-06-04T07:32:50.623Z,27.40
2023-06-04T07:33:50.645Z,27.34
2023-06-04T07:34:50.535Z,27.41
2023-06-04T07:35:50.549Z,28.20
2023-06-04T07:36:50.551Z,27.97
2023-06-04T07:37:50.564Z,28.45
2023-06-04T07:38:50.574Z,28.64
2023-06-04T07:39:50.610Z,27.45
2023-06-04T07:40:50.613Z,27.09
2023-06-04T07:41:50.631Z,27.08
2023-06-04T07:42:50.624Z,27.12
2023-06-04T07:43:50.634Z,26.84
2023-06-04T07:44:50.644Z,27.06
2023-06-04T07:45:50.700Z,27.40
2023-06-04T07:46:50.666Z,26.81
2023-06-04T07:47:50.721Z,27.33
2023-06-04T07:48:50.662Z,26.46
2023-06-04T07:50:01.760Z,24.91
2023-06-04T07:50:51.682Z,24.83
2023-06-04T07:51:50.659Z,23.63
2023-06-04T07:52:50.650Z,22.54
2023-06-04T07:53:50.644Z,23.18
2023-06-04T07:54:50.637Z,23.13
2023-06-04T07:55:51.790Z,23.39
2023-06-04T07:56:50.632Z,23.40
2023-06-04T07:57:50.614Z,23.39
2023-06-04T07:58:50.622Z,23.18
2023-06-04T07:59:50.605Z,22.71
2023-06-04T08:00:50.592Z,22.66
2023-06-04T08:01:50.591Z,22.64
2023-06-04T08:02:50.636Z,22.54
2023-06-04T08:03:50.727Z,21.62
2023-06-04T08:04:50.585Z,20.81
2023-06-04T08:05:50.559Z,21.41
2023-06-04T08:06:50.559Z,22.12
2023-06-04T08:07:50.606Z,22.51
2023-06-04T08:08:50.541Z,22.63
2023-06-04T08:09:50.530Z,22.99
2023-06-04T08:10:50.510Z,23.27
2023-06-04T08:11:50.515Z,23.34
2023-06-04T08:12:50.513Z,23.87
2023-06-04T08:13:50.510Z,23.29
2023-06-04T08:14:50.488Z,23.37
2023-06-04T08:15:50.523Z,22.61
2023-06-04T08:16:50.514Z,22.12
2023-06-04T08:17:50.568Z,21.92
2023-06-04T08:18:50.511Z,21.85
2023-06-04T08:19:50.510Z,21.74
2023-06-04T08:20:50.530Z,22.24
2023-06-04T08:21:50.511Z,21.66
2023-06-04T08:22:50.521Z,22.25
2023-06-04T08:23:50.533Z,21.76
2023-06-04T08:24:50.535Z,22.42
2023-06-04T08:25:50.537Z,22.41
2023-06-04T08:26:50.540Z,22.26
2023-06-04T08:27:50.557Z,22.67
2023-06-04T08:28:50.572Z,22.45
2023-06-04T08:29:50.604Z,22.23
2023-06-04T08:30:50.596Z,21.32
2023-06-04T08:31:50.625Z,20.25
2023-06-04T08:32:50.628Z,18.22
2023-06-04T08:33:50.607Z,17.50
2023-06-04T08:34:50.612Z,17.01
2023-06-04T08:35:50.614Z,17.24
2023-06-04T08:36:50.631Z,16.75
2023-06-04T08:37:50.640Z,17.77
2023-06-04T08:38:52.714Z,18.59
2023-06-04T08:39:50.630Z,18.65
2023-06-04T08:40:50.637Z,18.15
2023-06-04T08:41:50.659Z,17.38
2023-06-04T08:42:50.653Z,15.94
2023-06-04T08:43:50.645Z,15.53
2023-06-04T08:44:50.661Z,15.46
2023-06-04T08:45:50.698Z,15.96
2023-06-04T08:46:50.660Z,15.57
2023-06-04T08:47:50.733Z,15.17
2023-06-04T08:48:50.672Z,15.98
2023-06-04T08:49:50.679Z,16.90
2023-06-04T08:50:50.678Z,16.72
2023-06-04T08:51:50.686Z,16.29
2023-06-04T08:52:50.737Z,16.44
2023-06-04T08:53:50.691Z,17.35
2023-06-04T08:54:50.696Z,17.58
2023-06-04T08:55:50.685Z,17.83
2023-06-04T08:56:50.686Z,18.25
2023-06-04T08:57:50.706Z,18.21
2023-06-04T08:58:52.576Z,17.75
2023-06-04T08:59:50.697Z,15.93
2023-06-04T09:00:50.807Z,14.75
2023-06-04T09:01:50.801Z,13.12
2023-06-04T09:02:50.726Z,12.25
2023-06-04T09:03:50.800Z,11.63
2023-06-04T09:04:50.734Z,11.69
2023-06-04T09:05:50.731Z,12.49
2023-06-04T09:06:50.737Z,12.90
2023-06-04T09:07:50.737Z,13.78
2023-06-04T09:08:57.513Z,13.98
2023-06-04T09:10:04.171Z,13.98
2023-06-04T09:10:51.788Z,13.99
2023-06-04T09:11:50.717Z,13.50
2023-06-04T09:12:50.713Z,12.39
2023-06-04T09:13:50.715Z,11.18
2023-06-04T09:14:50.697Z,10.62
2023-06-04T09:15:50.819Z,10.25
2023-06-04T09:16:50.685Z,9.94
2023-06-04T09:17:50.763Z,10.34
2023-06-04T09:18:50.686Z,10.73
2023-06-04T09:19:50.682Z,11.19
2023-06-04T09:20:50.656Z,12.10
2023-06-04T09:21:50.650Z,13.00
2023-06-04T09:22:50.655Z,12.20
2023-06-04T09:23:50.658Z,11.20
2023-06-04T09:24:50.660Z,10.26
2023-06-04T09:25:50.641Z,9.60
2023-06-04T09:26:50.610Z,8.86
2023-06-04T09:27:50.601Z,9.14
2023-06-04T09:28:50.596Z,10.81
2023-06-04T09:29:51.368Z,12.22
2023-06-04T09:30:50.652Z,13.42
2023-06-04T09:31:50.687Z,14.93
2023-06-04T09:32:50.627Z,15.33
2023-06-04T09:33:50.580Z,14.71
2023-06-04T09:34:50.555Z,14.37
2023-06-04T09:35:50.547Z,13.57
2023-06-04T09:36:50.551Z,13.04
2023-06-04T09:37:50.591Z,14.03
2023-06-04T09:38:50.532Z,13.95
2023-06-04T09:39:50.534Z,14.56
2023-06-04T09:40:50.526Z,14.27
2023-06-04T09:41:50.522Z,14.06
2023-06-04T09:42:50.517Z,14.06
2023-06-04T09:43:50.501Z,14.13
2023-06-04T09:44:50.531Z,14.75
2023-06-04T09:45:50.478Z,14.98
2023-06-04T09:46:50.547Z,14.82
2023-06-04T09:47:50.526Z,13.90
2023-06-04T09:48:50.456Z,13.90
2023-06-04T09:49:50.462Z,13.43
2023-06-04T09:50:50.445Z,13.87
2023-06-04T09:51:50.446Z,15.30
2023-06-04T09:52:50.437Z,16.32
2023-06-04T09:53:50.444Z,16.85
2023-06-04T09:54:50.460Z,16.59
2023-06-04T09:55:50.425Z,16.55
2023-06-04T09:56:50.415Z,15.61
2023-06-04T09:57:50.420Z,15.55
2023-06-04T09:58:50.401Z,14.10
2023-06-04T09:59:50.407Z,13.04
2023-06-04T10:00:50.410Z,11.89
2023-06-04T10:01:50.494Z,11.36
2023-06-04T10:02:50.487Z,10.21
2023-06-04T10:03:50.492Z,9.96
2023-06-04T10:04:50.373Z,9.76
2023-06-04T10:05:50.363Z,9.88
2023-06-04T10:06:50.354Z,9.94
2023-06-04T10:07:50.345Z,10.89
2023-06-04T10:08:50.351Z,10.92
2023-06-04T10:09:50.341Z,11.69
2023-06-04T10:10:50.330Z,12.23
2023-06-04T10:11:50.331Z,12.39
2023-06-04T10:12:50.321Z,13.18
2023-06-04T10:13:50.309Z,13.00
2023-06-04T10:14:50.315Z,13.56
2023-06-04T10:15:50.306Z,13.82
2023-06-04T10:16:50.330Z,14.31
2023-06-04T10:17:50.319Z,14.42
2023-06-04T10:18:50.288Z,14.42
2023-06-04T10:19:50.290Z,14.52
2023-06-04T10:20:50.285Z,14.01
2023-06-04T10:21:50.262Z,14.09
2023-06-04T10:22:50.257Z,13.77
2023-06-04T10:23:50.300Z,13.59
2023-06-04T10:24:50.245Z,13.15
2023-06-04T10:25:50.232Z,13.53
2023-06-04T10:26:50.238Z,13.66
2023-06-04T10:27:50.219Z,13.98
2023-06-04T10:28:50.209Z,13.55
2023-06-04T10:29:50.202Z,14.10
2023-06-04T10:30:50.204Z,14.01
2023-06-04T10:31:50.269Z,13.97
2023-06-04T10:32:50.387Z,14.25
2023-06-04T10:33:50.184Z,14.98
2023-06-04T10:34:50.192Z,15.02
2023-06-04T10:35:50.170Z,14.87
2023-06-04T10:36:50.178Z,14.53
2023-06-04T10:37:50.153Z,14.56
2023-06-04T10:38:50.166Z,14.37
2023-06-04T10:39:50.158Z,14.41
2023-06-04T10:40:50.149Z,14.20
2023-06-04T10:41:50.143Z,13.92
2023-06-04T10:42:50.129Z,13.53
2023-06-04T10:43:50.123Z,13.57
2023-06-04T10:44:50.145Z,13.36
2023-06-04T10:45:50.166Z,13.71
2023-06-04T10:46:50.101Z,14.07
2023-06-04T10:47:50.138Z,14.19
2023-06-04T10:48:50.098Z,14.66
2023-06-04T10:49:50.111Z,14.58
2023-06-04T10:50:50.090Z,14.62
2023-06-04T10:51:50.079Z,14.94
2023-06-04T10:52:50.072Z,14.36
2023-06-04T10:53:50.059Z,13.78
2023-06-04T10:54:50.114Z,13.91
2023-06-04T10:55:50.053Z,11.94
2023-06-04T10:56:50.049Z,10.36
2023-06-04T10:57:50.042Z,9.06
2023-06-04T10:58:50.036Z,7.95
2023-06-04T10:59:50.039Z,7.07
2023-06-04T11:00:50.170Z,6.23
2023-06-04T11:01:50.051Z,5.68
2023-06-04T11:02:50.078Z,5.75
2023-06-04T11:03:50.072Z,6.00
2023-06-04T11:04:49.981Z,6.73
2023-06-04T11:05:49.973Z,8.02
2023-06-04T11:06:49.967Z,8.93
2023-06-04T11:07:49.982Z,10.51
2023-06-04T11:08:49.991Z,11.14
2023-06-04T11:09:50.005Z,11.84
2023-06-04T11:10:50.000Z,12.63
2023-06-04T11:11:50.019Z,12.67
2023-06-04T11:12:50.038Z,13.38
2023-06-04T11:13:50.067Z,13.65
2023-06-04T11:14:50.087Z,13.87
2023-06-04T11:15:50.131Z,14.04
2023-06-04T11:16:50.100Z,14.37
2023-06-04T11:17:50.125Z,14.29
2023-06-04T11:18:50.106Z,13.51
2023-06-04T11:19:50.108Z,13.03
2023-06-04T11:20:50.106Z,13.03
2023-06-04T11:21:50.106Z,12.73
2023-06-04T11:22:50.109Z,13.25
2023-06-04T11:23:50.211Z,13.26
2023-06-04T11:24:50.132Z,12.96
2023-06-04T11:25:50.143Z,12.69
2023-06-04T11:27:00.215Z,12.37
2023-06-04T11:27:51.149Z,12.38
2023-06-04T11:28:50.156Z,12.43
2023-06-04T11:29:50.160Z,12.73
2023-06-04T11:30:50.128Z,13.06
2023-06-04T11:31:50.295Z,13.80
2023-06-04T11:32:50.205Z,13.75
2023-06-04T11:33:50.098Z,14.19
2023-06-04T11:34:50.116Z,13.80
2023-06-04T11:35:50.081Z,13.79
2023-06-04T11:36:50.084Z,13.61
2023-06-04T11:37:50.079Z,13.77
2023-06-04T11:38:50.083Z,13.31
2023-06-04T11:39:50.081Z,13.54
2023-06-04T11:40:50.047Z,14.58
2023-06-04T11:41:50.044Z,14.67
2023-06-04T11:42:50.036Z,15.14
2023-06-04T11:43:50.024Z,15.22
2023-06-04T11:44:50.110Z,15.40
2023-06-04T11:45:50.026Z,15.10
2023-06-04T11:46:50.026Z,14.60
2023-06-04T11:47:50.109Z,14.33
2023-06-04T11:48:50.052Z,14.54
2023-06-04T11:49:50.043Z,14.26
2023-06-04T11:50:50.092Z,15.18
2023-06-04T11:51:50.160Z,15.66
2023-06-04T11:52:50.204Z,15.72
2023-06-04T11:53:50.268Z,15.92
2023-06-04T11:54:50.351Z,15.49
2023-06-04T11:55:50.382Z,15.76
2023-06-04T11:56:50.432Z,15.76
2023-06-04T11:57:50.482Z,16.09
2023-06-04T11:58:50.559Z,16.56
2023-06-04T11:59:50.640Z,15.66
2023-06-04T12:00:50.653Z,15.44
2023-06-04T12:01:50.743Z,15.02
2023-06-04T12:02:50.855Z,15.50
2023-06-04T12:03:50.748Z,16.45
2023-06-04T12:04:50.778Z,16.12
2023-06-04T12:05:50.794Z,16.15
2023-06-04T12:06:50.824Z,15.81
2023-06-04T12:07:50.872Z,15.51
2023-06-04T12:08:50.909Z,16.06
2023-06-04T12:09:50.938Z,16.23
2023-06-04T12:10:50.979Z,16.11
2023-06-04T12:11:51.010Z,15.77
2023-06-04T12:12:51.035Z,15.90
2023-06-04T12:13:51.056Z,15.59
2023-06-04T12:14:51.111Z,14.27
2023-06-04T12:15:51.121Z,14.83
2023-06-04T12:16:51.240Z,14.77
2023-06-04T12:17:51.244Z,14.84
2023-06-04T12:18:51.233Z,14.81
2023-06-04T12:19:51.284Z,15.10
2023-06-04T12:20:51.317Z,14.96
2023-06-04T12:21:51.337Z,14.09
2023-06-04T12:22:51.362Z,14.35
2023-06-04T12:23:51.373Z,13.44
2023-06-04T12:24:51.362Z,13.48
2023-06-04T12:25:51.370Z,13.65
2023-06-04T12:26:51.376Z,14.42
2023-06-04T12:27:51.369Z,14.80
2023-06-04T12:28:51.390Z,15.53
2023-06-04T12:29:51.382Z,14.75
2023-06-04T12:30:51.389Z,14.46
2023-06-04T12:31:51.396Z,14.70
2023-06-04T12:32:51.441Z,14.75
2023-06-04T12:33:51.408Z,15.06
2023-06-04T12:34:51.443Z,15.33
2023-06-04T12:35:51.437Z,15.11
2023-06-04T12:36:51.464Z,15.20
2023-06-04T12:37:51.496Z,15.03
2023-06-04T12:38:51.511Z,15.35
2023-06-04T12:39:51.522Z,15.67
2023-06-04T12:40:51.520Z,14.94
2023-06-04T12:41:51.553Z,14.98
2023-06-04T12:42:51.525Z,14.47
2023-06-04T12:43:51.522Z,13.65
2023-06-04T12:44:51.522Z,14.07
2023-06-04T12:45:51.566Z,13.47
2023-06-04T12:46:52.161Z,13.17
2023-06-04T12:47:51.677Z,13.53
2023-06-04T12:48:51.669Z,14.13
2023-06-04T12:49:51.716Z,14.50